sensor_id;sensor_type;location;lat;lon;timestamp;pressure;altitude;pressure_sealevel;temperature;humidity
3206;BME280;1615;53.602;11.418;2022-08-19T00:01:31;100690.19;;;22.59;100.00
3206;BME280;1615;53.602;11.418;2022-08-19T00:03:58;100687.03;;;22.60;100.00
3206;BME280;1615;53.602;11.418;2022-08-19T00:06:24;100697.41;;;22.60;100.00
3206;BME280;1615;53.602;11.418;2022-08-19T00:08:49;100700.09;;;22.79;100.00
3206;BME280;1615;53.602;11.418;2022-08-19T00:11:16;100687.19;;;22.71;100.00
3206;BME280;1615;53.602;11.418;2022-08-19T00:13:42;100680.94;;;22.81;100.00
3206;BME280;1615;53.602;11.418;2022-08-19T00:16:08;100687.44;;;22.88;100.00
3206;BME280;1615;53.602;11.418;2022-08-19T00:18:33;100603.47;;;22.29;100.00
3206;BME280;1615;53.602;11.418;2022-08-19T00:20:59;100705.47;;;22.91;100.00
3206;BME280;1615;53.602;11.418;2022-08-19T00:23:25;100684.19;;;22.83;100.00
3206;BME280;1615;53.602;11.418;2022-08-19T00:25:50;100659.47;;;22.59;100.00
3206;BME280;1615;53.602;11.418;2022-08-19T00:28:15;100718.06;;;23.04;100.00
3206;BME280;1615;53.602;11.418;2022-08-19T00:30:41;100720.78;;;23.00;100.00
3206;BME280;1615;53.602;11.418;2022-08-19T00:33:06;100735.84;;;22.92;100.00
3206;BME280;1615;53.602;11.418;2022-08-19T00:35:33;100729.03;;;22.90;100.00
3206;BME280;1615;53.602;11.418;2022-08-19T00:37:58;100736.00;;;22.77;100.00
3206;BME280;1615;53.602;11.418;2022-08-19T00:40:25;100695.09;;;22.43;100.00
3206;BME280;1615;53.602;11.418;2022-08-19T00:42:51;100740.63;;;22.66;100.00
3206;BME280;1615;53.602;11.418;2022-08-19T00:45:21;100730.16;;;22.59;100.00
3206;BME280;1615;53.602;11.418;2022-08-19T00:47:47;100713.94;;;22.46;100.00
3206;BME280;1615;53.602;11.418;2022-08-19T00:50:15;100735.59;;;22.52;100.00
3206;BME280;1615;53.602;11.418;2022-08-19T00:52:45;100738.91;;;22.58;100.00
3206;BME280;1615;53.602;11.418;2022-08-19T00:55:19;100731.69;;;22.57;100.00
3206;BME280;1615;53.602;11.418;2022-08-19T00:57:48;100733.63;;;22.53;100.00
3206;BME280;1615;53.602;11.418;2022-08-19T01:00:18;100724.97;;;22.61;100.00
3206;BME280;1615;53.602;11.418;2022-08-19T01:02:43;100729.28;;;22.55;100.00
3206;BME280;1615;53.602;11.418;2022-08-19T01:05:16;100718.91;;;22.56;100.00
3206;BME280;1615;53.602;11.418;2022-08-19T01:07:43;100635.72;;;22.01;100.00
3206;BME280;1615;53.602;11.418;2022-08-19T01:10:12;100716.13;;;22.56;100.00
3206;BME280;1615;53.602;11.418;2022-08-19T01:12:39;100714.06;;;22.53;100.00
3206;BME280;1615;53.602;11.418;2022-08-19T01:15:07;100624.56;;;22.01;100.00
3206;BME280;1615;53.602;11.418;2022-08-19T01:17:34;100715.31;;;22.55;100.00
3206;BME280;1615;53.602;11.418;2022-08-19T01:20:02;100724.06;;;22.54;100.00
3206;BME280;1615;53.602;11.418;2022-08-19T01:22:37;100702.31;;;22.44;100.00
3206;BME280;1615;53.602;11.418;2022-08-19T01:25:06;100709.22;;;22.50;100.00
3206;BME280;1615;53.602;11.418;2022-08-19T01:27:43;100735.34;;;22.61;100.00
3206;BME280;1615;53.602;11.418;2022-08-19T01:30:14;100742.94;;;22.60;100.00
3206;BME280;1615;53.602;11.418;2022-08-19T01:32:40;100734.00;;;22.51;100.00
3206;BME280;1615;53.602;11.418;2022-08-19T01:35:06;100741.94;;;22.49;100.00
3206;BME280;1615;53.602;11.418;2022-08-19T01:37:45;100725.59;;;22.51;100.00
3206;BME280;1615;53.602;11.418;2022-08-19T01:40:11;100704.97;;;22.37;100.00
3206;BME280;1615;53.602;11.418;2022-08-19T01:42:37;100727.47;;;22.44;100.00
3206;BME280;1615;53.602;11.418;2022-08-19T01:45:03;100728.09;;;22.56;100.00
3206;BME280;1615;53.602;11.418;2022-08-19T01:47:28;100724.88;;;22.54;100.00
3206;BME280;1615;53.602;11.418;2022-08-19T01:49:54;100728.03;;;22.53;100.00
3206;BME280;1615;53.602;11.418;2022-08-19T01:52:19;100722.88;;;22.55;100.00
3206;BME280;1615;53.602;11.418;2022-08-19T01:54:44;100707.75;;;22.56;100.00
3206;BME280;1615;53.602;11.418;2022-08-19T01:57:12;100715.72;;;22.57;100.00
3206;BME280;1615;53.602;11.418;2022-08-19T01:59:40;100716.50;;;22.54;100.00
3206;BME280;1615;53.602;11.418;2022-08-19T02:02:06;100729.66;;;22.54;100.00
3206;BME280;1615;53.602;11.418;2022-08-19T02:04:33;100725.25;;;22.53;100.00
3206;BME280;1615;53.602;11.418;2022-08-19T02:06:59;100725.97;;;22.50;100.00
3206;BME280;1615;53.602;11.418;2022-08-19T02:09:24;100725.25;;;22.53;100.00
3206;BME280;1615;53.602;11.418;2022-08-19T02:11:49;100721.25;;;22.54;100.00
3206;BME280;1615;53.602;11.418;2022-08-19T02:14:15;100700.69;;;22.43;100.00
3206;BME280;1615;53.602;11.418;2022-08-19T02:16:40;100717.41;;;22.62;100.00
3206;BME280;1615;53.602;11.418;2022-08-19T02:19:06;100710.94;;;22.58;100.00
3206;BME280;1615;53.602;11.418;2022-08-19T02:21:31;100717.28;;;22.55;100.00
3206;BME280;1615;53.602;11.418;2022-08-19T02:23:57;100726.13;;;22.57;100.00
3206;BME280;1615;53.602;11.418;2022-08-19T02:26:22;100663.91;;;22.15;100.00
3206;BME280;1615;53.602;11.418;2022-08-19T02:28:48;100729.22;;;22.52;100.00
3206;BME280;1615;53.602;11.418;2022-08-19T02:31:16;100719.53;;;22.46;100.00
3206;BME280;1615;53.602;11.418;2022-08-19T02:33:42;100638.50;;;22.01;100.00
3206;BME280;1615;53.602;11.418;2022-08-19T02:36:10;100700.53;;;22.32;100.00
3206;BME280;1615;53.602;11.418;2022-08-19T02:38:36;100717.03;;;22.41;100.00
3206;BME280;1615;53.602;11.418;2022-08-19T02:41:14;100674.09;;;22.04;100.00
3206;BME280;1615;53.602;11.418;2022-08-19T02:43:40;100721.63;;;22.30;100.00
3206;BME280;1615;53.602;11.418;2022-08-19T02:46:13;100716.16;;;22.37;100.00
3206;BME280;1615;53.602;11.418;2022-08-19T02:48:39;100717.75;;;22.38;100.00
3206;BME280;1615;53.602;11.418;2022-08-19T02:51:04;100649.16;;;21.92;100.00
3206;BME280;1615;53.602;11.418;2022-08-19T02:53:30;100722.63;;;22.41;100.00
3206;BME280;1615;53.602;11.418;2022-08-19T02:55:56;100727.47;;;22.44;100.00
3206;BME280;1615;53.602;11.418;2022-08-19T02:58:22;100721.16;;;22.47;100.00
3206;BME280;1615;53.602;11.418;2022-08-19T03:00:53;100728.41;;;22.51;100.00
3206;BME280;1615;53.602;11.418;2022-08-19T03:03:19;100698.50;;;22.33;100.00
3206;BME280;1615;53.602;11.418;2022-08-19T03:05:45;100720.34;;;22.46;100.00
3206;BME280;1615;53.602;11.418;2022-08-19T03:08:11;100714.22;;;22.41;100.00
3206;BME280;1615;53.602;11.418;2022-08-19T03:10:46;100718.59;;;22.38;100.00
3206;BME280;1615;53.602;11.418;2022-08-19T03:13:17;100728.78;;;22.27;100.00
3206;BME280;1615;53.602;11.418;2022-08-19T03:15:45;100697.34;;;22.11;100.00
3206;BME280;1615;53.602;11.418;2022-08-19T03:18:11;100665.75;;;21.85;100.00
3206;BME280;1615;53.602;11.418;2022-08-19T03:20:45;100725.34;;;22.15;100.00
3206;BME280;1615;53.602;11.418;2022-08-19T03:23:11;100679.28;;;21.83;100.00
3206;BME280;1615;53.602;11.418;2022-08-19T03:25:41;100740.25;;;22.22;100.00
3206;BME280;1615;53.602;11.418;2022-08-19T03:28:09;100735.91;;;22.25;100.00
3206;BME280;1615;53.602;11.418;2022-08-19T03:30:34;100732.81;;;22.30;100.00
3206;BME280;1615;53.602;11.418;2022-08-19T03:33:00;100721.63;;;22.30;100.00
3206;BME280;1615;53.602;11.418;2022-08-19T03:35:25;100719.94;;;22.25;100.00
3206;BME280;1615;53.602;11.418;2022-08-19T03:37:51;100713.41;;;22.18;100.00
3206;BME280;1615;53.602;11.418;2022-08-19T03:40:17;100706.47;;;22.31;100.00
3206;BME280;1615;53.602;11.418;2022-08-19T03:42:44;100710.19;;;22.16;100.00
3206;BME280;1615;53.602;11.418;2022-08-19T03:45:09;100706.66;;;22.19;100.00
3206;BME280;1615;53.602;11.418;2022-08-19T03:47:35;100714.78;;;22.05;100.00
3206;BME280;1615;53.602;11.418;2022-08-19T03:50:02;100637.28;;;21.57;100.00
3206;BME280;1615;53.602;11.418;2022-08-19T03:52:27;100731.28;;;22.13;100.00
3206;BME280;1615;53.602;11.418;2022-08-19T03:54:53;100728.56;;;22.17;100.00
3206;BME280;1615;53.602;11.418;2022-08-19T03:57:18;100470.88;;;20.43;100.00
3206;BME280;1615;53.602;11.418;2022-08-19T03:59:43;100733.09;;;22.02;100.00
3206;BME280;1615;53.602;11.418;2022-08-19T04:02:11;100739.50;;;22.03;100.00
3206;BME280;1615;53.602;11.418;2022-08-19T04:04:38;100736.75;;;22.06;100.00
3206;BME280;1615;53.602;11.418;2022-08-19T04:07:04;100759.41;;;22.01;100.00
3206;BME280;1615;53.602;11.418;2022-08-19T04:09:30;100760.13;;;21.98;100.00
3206;BME280;1615;53.602;11.418;2022-08-19T04:11:57;100747.56;;;22.08;100.00
3206;BME280;1615;53.602;11.418;2022-08-19T04:14:25;100741.09;;;22.04;100.00
3206;BME280;1615;53.602;11.418;2022-08-19T04:16:52;100687.94;;;21.78;100.00
3206;BME280;1615;53.602;11.418;2022-08-19T04:19:18;100751.72;;;22.17;100.00
3206;BME280;1615;53.602;11.418;2022-08-19T04:21:46;100747.38;;;22.20;100.00
3206;BME280;1615;53.602;11.418;2022-08-19T04:24:12;100751.78;;;22.21;100.00
3206;BME280;1615;53.602;11.418;2022-08-19T04:26:38;100721.97;;;22.06;100.00
3206;BME280;1615;53.602;11.418;2022-08-19T04:29:10;100750.19;;;22.20;100.00
3206;BME280;1615;53.602;11.418;2022-08-19T04:31:36;100722.75;;;22.03;100.00
3206;BME280;1615;53.602;11.418;2022-08-19T04:34:04;100757.44;;;22.24;100.00
3206;BME280;1615;53.602;11.418;2022-08-19T04:36:33;100757.50;;;22.28;100.00
3206;BME280;1615;53.602;11.418;2022-08-19T04:39:02;100761.84;;;22.25;100.00
3206;BME280;1615;53.602;11.418;2022-08-19T04:41:28;100690.88;;;21.85;100.00
3206;BME280;1615;53.602;11.418;2022-08-19T04:44:12;100757.63;;;22.35;100.00
3206;BME280;1615;53.602;11.418;2022-08-19T04:46:38;100708.25;;;21.97;100.00
3206;BME280;1615;53.602;11.418;2022-08-19T04:49:05;100757.06;;;22.26;100.00
3206;BME280;1615;53.602;11.418;2022-08-19T04:51:31;100758.47;;;22.39;100.00
3206;BME280;1615;53.602;11.418;2022-08-19T04:53:58;100763.72;;;22.40;100.00
3206;BME280;1615;53.602;11.418;2022-08-19T04:56:25;100760.84;;;22.37;100.00
3206;BME280;1615;53.602;11.418;2022-08-19T04:58:52;100763.78;;;22.44;100.00
3206;BME280;1615;53.602;11.418;2022-08-19T05:01:21;100757.97;;;22.52;100.00
3206;BME280;1615;53.602;11.418;2022-08-19T05:03:47;100767.16;;;22.53;100.00
3206;BME280;1615;53.602;11.418;2022-08-19T05:06:14;100764.31;;;22.49;100.00
3206;BME280;1615;53.602;11.418;2022-08-19T05:08:41;100773.06;;;22.48;100.00
3206;BME280;1615;53.602;11.418;2022-08-19T05:13:38;100770.53;;;22.62;100.00
3206;BME280;1615;53.602;11.418;2022-08-19T05:16:04;100763.63;;;22.56;100.00
3206;BME280;1615;53.602;11.418;2022-08-19T05:18:30;100783.03;;;22.71;100.00
3206;BME280;1615;53.602;11.418;2022-08-19T05:21:17;100778.38;;;22.79;100.00
3206;BME280;1615;53.602;11.418;2022-08-19T05:24:00;100721.38;;;22.16;100.00
3206;BME280;1615;53.602;11.418;2022-08-19T05:26:27;100794.03;;;22.61;100.00
3206;BME280;1615;53.602;11.418;2022-08-19T05:28:53;100792.13;;;22.65;100.00
3206;BME280;1615;53.602;11.418;2022-08-19T05:31:19;100791.00;;;22.69;100.00
3206;BME280;1615;53.602;11.418;2022-08-19T05:33:46;100781.00;;;22.68;100.00
3206;BME280;1615;53.602;11.418;2022-08-19T05:36:11;100793.91;;;22.54;100.00
3206;BME280;1615;53.602;11.418;2022-08-19T05:38:37;100786.44;;;22.39;100.00
3206;BME280;1615;53.602;11.418;2022-08-19T05:41:11;100772.47;;;22.39;100.00
3206;BME280;1615;53.602;11.418;2022-08-19T05:43:37;100756.56;;;22.20;100.00
3206;BME280;1615;53.602;11.418;2022-08-19T05:46:04;100725.94;;;22.05;100.00
3206;BME280;1615;53.602;11.418;2022-08-19T05:48:30;100740.72;;;22.28;100.00
3206;BME280;1615;53.602;11.418;2022-08-19T05:50:56;100795.16;;;22.79;100.00
3206;BME280;1615;53.602;11.418;2022-08-19T05:53:22;100786.97;;;22.93;100.00
3206;BME280;1615;53.602;11.418;2022-08-19T05:55:47;100783.09;;;22.97;100.00
3206;BME280;1615;53.602;11.418;2022-08-19T05:58:12;100788.31;;;22.99;100.00
3206;BME280;1615;53.602;11.418;2022-08-19T06:00:38;100789.09;;;22.99;100.00
3206;BME280;1615;53.602;11.418;2022-08-19T06:03:05;100778.34;;;23.01;100.00
3206;BME280;1615;53.602;11.418;2022-08-19T06:05:30;100771.06;;;22.97;100.00
3206;BME280;1615;53.602;11.418;2022-08-19T06:07:56;100757.53;;;22.73;100.00
3206;BME280;1615;53.602;11.418;2022-08-19T06:10:23;100707.47;;;22.42;100.00
3206;BME280;1615;53.602;11.418;2022-08-19T06:12:49;100760.25;;;22.69;100.00
3206;BME280;1615;53.602;11.418;2022-08-19T06:15:14;100781.75;;;22.88;100.00
3206;BME280;1615;53.602;11.418;2022-08-19T06:17:40;100777.75;;;22.89;100.00
3206;BME280;1615;53.602;11.418;2022-08-19T06:20:09;100776.66;;;22.97;100.00
3206;BME280;1615;53.602;11.418;2022-08-19T06:22:43;100769.56;;;23.03;100.00
3206;BME280;1615;53.602;11.418;2022-08-19T06:25:09;100770.75;;;23.02;100.00
3206;BME280;1615;53.602;11.418;2022-08-19T06:27:35;100771.19;;;23.04;100.00
3206;BME280;1615;53.602;11.418;2022-08-19T06:30:02;100772.50;;;23.10;100.00
3206;BME280;1615;53.602;11.418;2022-08-19T06:32:27;100775.38;;;23.17;100.00
3206;BME280;1615;53.602;11.418;2022-08-19T06:34:52;100772.59;;;23.17;100.00
3206;BME280;1615;53.602;11.418;2022-08-19T06:37:18;100767.06;;;23.20;100.00
3206;BME280;1615;53.602;11.418;2022-08-19T06:39:45;100770.28;;;23.22;100.00
3206;BME280;1615;53.602;11.418;2022-08-19T06:42:11;100751.72;;;23.11;100.00
3206;BME280;1615;53.602;11.418;2022-08-19T06:44:40;100760.31;;;23.25;100.00
3206;BME280;1615;53.602;11.418;2022-08-19T06:47:08;100752.28;;;23.20;100.00
3206;BME280;1615;53.602;11.418;2022-08-19T06:49:34;100770.41;;;23.29;100.00
3206;BME280;1615;53.602;11.418;2022-08-19T06:52:00;100744.72;;;23.24;100.00
3206;BME280;1615;53.602;11.418;2022-08-19T06:54:27;100756.88;;;23.35;100.00
3206;BME280;1615;53.602;11.418;2022-08-19T06:56:55;100758.97;;;23.41;100.00
3206;BME280;1615;53.602;11.418;2022-08-19T06:59:22;100754.69;;;23.51;100.00
3206;BME280;1615;53.602;11.418;2022-08-19T07:01:53;100696.56;;;23.11;100.00
3206;BME280;1615;53.602;11.418;2022-08-19T07:04:22;100752.28;;;23.49;100.00
3206;BME280;1615;53.602;11.418;2022-08-19T07:06:49;100746.53;;;23.39;100.00
3206;BME280;1615;53.602;11.418;2022-08-19T07:09:17;100748.19;;;23.43;100.00
3206;BME280;1615;53.602;11.418;2022-08-19T07:11:47;100752.22;;;23.46;100.00
3206;BME280;1615;53.602;11.418;2022-08-19T07:14:14;100745.38;;;23.43;100.00
3206;BME280;1615;53.602;11.418;2022-08-19T07:16:43;100703.13;;;23.22;100.00
3206;BME280;1615;53.602;11.418;2022-08-19T07:19:08;100753.03;;;23.46;100.00
3206;BME280;1615;53.602;11.418;2022-08-19T07:21:35;100735.53;;;23.53;100.00
3206;BME280;1615;53.602;11.418;2022-08-19T07:24:00;100745.72;;;23.68;100.00
3206;BME280;1615;53.602;11.418;2022-08-19T07:26:28;100745.38;;;23.73;100.00
3206;BME280;1615;53.602;11.418;2022-08-19T07:28:55;100733.69;;;23.64;100.00
3206;BME280;1615;53.602;11.418;2022-08-19T07:31:22;100753.59;;;23.88;100.00
3206;BME280;1615;53.602;11.418;2022-08-19T07:33:50;100756.44;;;23.92;100.00
3206;BME280;1615;53.602;11.418;2022-08-19T07:36:19;100767.72;;;23.99;100.00
3206;BME280;1615;53.602;11.418;2022-08-19T07:38:48;100757.88;;;24.12;100.00
3206;BME280;1615;53.602;11.418;2022-08-19T07:41:17;100769.47;;;24.14;100.00
3206;BME280;1615;53.602;11.418;2022-08-19T07:43:43;100773.94;;;24.18;100.00
3206;BME280;1615;53.602;11.418;2022-08-19T07:46:09;100737.47;;;23.82;100.00
3206;BME280;1615;53.602;11.418;2022-08-19T07:48:35;100775.16;;;24.21;100.00
3206;BME280;1615;53.602;11.418;2022-08-19T07:51:04;100787.66;;;24.27;100.00
3206;BME280;1615;53.602;11.418;2022-08-19T07:53:31;100787.72;;;24.34;100.00
3206;BME280;1615;53.602;11.418;2022-08-19T07:55:58;100784.53;;;24.35;100.00
3206;BME280;1615;53.602;11.418;2022-08-19T07:58:38;100718.78;;;23.89;100.00
3206;BME280;1615;53.602;11.418;2022-08-19T08:01:05;100785.78;;;24.05;100.00
3206;BME280;1615;53.602;11.418;2022-08-19T08:03:31;100790.59;;;24.04;100.00
3206;BME280;1615;53.602;11.418;2022-08-19T08:06:15;100805.13;;;23.84;100.00
3206;BME280;1615;53.602;11.418;2022-08-19T08:09:01;100713.59;;;23.25;100.00
3206;BME280;1615;53.602;11.418;2022-08-19T08:11:44;100806.22;;;23.76;100.00
3206;BME280;1615;53.602;11.418;2022-08-19T08:14:14;100800.63;;;23.76;100.00
3206;BME280;1615;53.602;11.418;2022-08-19T08:16:40;100805.81;;;23.74;100.00
3206;BME280;1615;53.602;11.418;2022-08-19T08:19:07;100806.34;;;23.86;100.00
3206;BME280;1615;53.602;11.418;2022-08-19T08:21:33;100814.44;;;23.91;100.00
3206;BME280;1615;53.602;11.418;2022-08-19T08:23:59;100756.31;;;23.52;100.00
3206;BME280;1615;53.602;11.418;2022-08-19T08:26:25;100818.44;;;23.90;100.00
3206;BME280;1615;53.602;11.418;2022-08-19T08:28:51;100817.78;;;24.04;100.00
3206;BME280;1615;53.602;11.418;2022-08-19T08:31:17;100720.75;;;23.56;100.00
3206;BME280;1615;53.602;11.418;2022-08-19T08:33:46;100766.19;;;23.75;100.00
3206;BME280;1615;53.602;11.418;2022-08-19T08:36:12;100808.19;;;24.05;100.00
3206;BME280;1615;53.602;11.418;2022-08-19T08:38:39;100813.97;;;24.19;100.00
3206;BME280;1615;53.602;11.418;2022-08-19T08:44:14;100800.47;;;24.28;100.00
3206;BME280;1615;53.602;11.418;2022-08-19T08:46:46;100817.41;;;24.42;100.00
3206;BME280;1615;53.602;11.418;2022-08-19T08:52:07;100816.34;;;24.53;100.00
3206;BME280;1615;53.602;11.418;2022-08-19T08:54:39;100810.91;;;24.67;100.00
3206;BME280;1615;53.602;11.418;2022-08-19T08:57:12;100812.13;;;24.70;100.00
3206;BME280;1615;53.602;11.418;2022-08-19T08:59:41;100816.97;;;24.76;100.00
3206;BME280;1615;53.602;11.418;2022-08-19T09:02:08;100760.66;;;24.52;100.00
3206;BME280;1615;53.602;11.418;2022-08-19T09:04:35;100821.03;;;24.82;100.00
3206;BME280;1615;53.602;11.418;2022-08-19T09:08:07;100813.09;;;24.88;100.00
3206;BME280;1615;53.602;11.418;2022-08-19T09:10:59;100817.09;;;24.87;100.00
3206;BME280;1615;53.602;11.418;2022-08-19T09:16:10;100820.09;;;24.68;100.00
3206;BME280;1615;53.602;11.418;2022-08-19T09:18:48;100826.50;;;24.65;100.00
3206;BME280;1615;53.602;11.418;2022-08-19T09:21:15;100826.56;;;24.72;100.00
3206;BME280;1615;53.602;11.418;2022-08-19T09:23:43;100822.53;;;24.69;100.00
3206;BME280;1615;53.602;11.418;2022-08-19T09:26:11;100829.69;;;24.63;100.00
3206;BME280;1615;53.602;11.418;2022-08-19T09:28:39;100827.19;;;24.55;100.00
3206;BME280;1615;53.602;11.418;2022-08-19T09:31:12;100714.28;;;23.81;100.00
3206;BME280;1615;53.602;11.418;2022-08-19T09:33:38;100778.75;;;24.18;100.00
3206;BME280;1615;53.602;11.418;2022-08-19T09:36:06;100770.78;;;24.23;100.00
3206;BME280;1615;53.602;11.418;2022-08-19T09:38:32;100830.31;;;24.50;100.00
3206;BME280;1615;53.602;11.418;2022-08-19T09:41:03;100822.44;;;24.59;100.00
3206;BME280;1615;53.602;11.418;2022-08-19T09:43:29;100827.13;;;24.48;100.00
3206;BME280;1615;53.602;11.418;2022-08-19T09:45:55;100803.25;;;24.24;100.00
3206;BME280;1615;53.602;11.418;2022-08-19T09:48:21;100835.94;;;24.50;100.00
3206;BME280;1615;53.602;11.418;2022-08-19T09:50:46;100788.00;;;24.22;100.00
3206;BME280;1615;53.602;11.418;2022-08-19T09:53:12;100838.38;;;24.51;100.00
3206;BME280;1615;53.602;11.418;2022-08-19T09:55:42;100817.41;;;24.42;100.00
3206;BME280;1615;53.602;11.418;2022-08-19T09:58:07;100831.19;;;24.54;100.00
3206;BME280;1615;53.602;11.418;2022-08-19T10:00:33;100832.41;;;24.56;100.00
3206;BME280;1615;53.602;11.418;2022-08-19T10:02:59;100785.22;;;24.25;100.00
3206;BME280;1615;53.602;11.418;2022-08-19T10:05:24;100778.78;;;24.21;100.00
3206;BME280;1615;53.602;11.418;2022-08-19T10:08:09;100802.06;;;24.29;100.00
3206;BME280;1615;53.602;11.418;2022-08-19T10:10:35;100841.56;;;24.53;100.00
3206;BME280;1615;53.602;11.418;2022-08-19T10:13:01;100830.38;;;24.57;100.00
3206;BME280;1615;53.602;11.418;2022-08-19T10:15:26;100792.47;;;24.30;100.00
3206;BME280;1615;53.602;11.418;2022-08-19T10:17:51;100839.84;;;24.42;100.00
3206;BME280;1615;53.602;11.418;2022-08-19T10:20:17;100830.69;;;24.45;100.00
3206;BME280;1615;53.602;11.418;2022-08-19T10:22:42;100832.78;;;24.55;100.00
3206;BME280;1615;53.602;11.418;2022-08-19T10:25:08;100827.31;;;24.69;100.00
3206;BME280;1615;53.602;11.418;2022-08-19T10:27:34;100799.91;;;24.52;100.00
3206;BME280;1615;53.602;11.418;2022-08-19T10:29:59;100742.69;;;24.16;100.00
3206;BME280;1615;53.602;11.418;2022-08-19T10:32:24;100798.28;;;24.51;100.00
3206;BME280;1615;53.602;11.418;2022-08-19T10:34:50;100817.78;;;24.73;100.00
3206;BME280;1615;53.602;11.418;2022-08-19T10:37:17;100823.41;;;24.77;100.00
3206;BME280;1615;53.602;11.418;2022-08-19T10:39:45;100822.66;;;24.80;100.00
3206;BME280;1615;53.602;11.418;2022-08-19T10:42:13;100823.00;;;24.75;100.00
3206;BME280;1615;53.602;11.418;2022-08-19T10:44:38;100828.63;;;24.78;100.00
3206;BME280;1615;53.602;11.418;2022-08-19T10:47:04;100835.03;;;24.79;100.00
3206;BME280;1615;53.602;11.418;2022-08-19T10:49:30;100829.19;;;24.94;100.00
3206;BME280;1615;53.602;11.418;2022-08-19T10:51:57;100828.34;;;24.94;100.00
3206;BME280;1615;53.602;11.418;2022-08-19T10:54:41;100831.16;;;24.94;100.00
3206;BME280;1615;53.602;11.418;2022-08-19T10:57:25;100718.84;;;24.33;100.00
3206;BME280;1615;53.602;11.418;2022-08-19T10:59:55;100757.66;;;24.71;100.00
3206;BME280;1615;53.602;11.418;2022-08-19T11:02:21;100837.31;;;25.10;100.00
3206;BME280;1615;53.602;11.418;2022-08-19T11:04:46;100842.88;;;25.03;100.00
3206;BME280;1615;53.602;11.418;2022-08-19T11:07:14;100841.25;;;25.02;100.00
3206;BME280;1615;53.602;11.418;2022-08-19T11:09:41;100842.03;;;24.99;100.00
3206;BME280;1615;53.602;11.418;2022-08-19T11:12:08;100832.44;;;25.03;100.00
3206;BME280;1615;53.602;11.418;2022-08-19T11:14:34;100816.41;;;25.00;100.00
3206;BME280;1615;53.602;11.418;2022-08-19T11:17:00;100829.38;;;25.19;100.00
3206;BME280;1615;53.602;11.418;2022-08-19T11:19:25;100828.88;;;25.10;100.00
3206;BME280;1615;53.602;11.418;2022-08-19T11:21:52;100793.09;;;24.96;100.00
3206;BME280;1615;53.602;11.418;2022-08-19T11:24:24;100821.31;;;25.14;100.00
3206;BME280;1615;53.602;11.418;2022-08-19T11:26:52;100822.91;;;25.11;100.00
3206;BME280;1615;53.602;11.418;2022-08-19T11:29:20;100816.44;;;25.07;100.00
3206;BME280;1615;53.602;11.418;2022-08-19T11:31:48;100794.69;;;24.94;100.00
3206;BME280;1615;53.602;11.418;2022-08-19T11:34:20;100822.91;;;25.11;100.00
3206;BME280;1615;53.602;11.418;2022-08-19T11:36:47;100823.72;;;25.12;100.00
3206;BME280;1615;53.602;11.418;2022-08-19T11:39:15;100830.47;;;25.07;100.00
3206;BME280;1615;53.602;11.418;2022-08-19T11:41:41;100745.59;;;24.67;100.00
3206;BME280;1615;53.602;11.418;2022-08-19T11:44:06;100822.16;;;25.18;100.00
3206;BME280;1615;53.602;11.418;2022-08-19T11:46:34;100821.72;;;25.19;100.00
3206;BME280;1615;53.602;11.418;2022-08-19T11:49:01;100815.84;;;25.28;100.00
3206;BME280;1615;53.602;11.418;2022-08-19T11:51:28;100821.16;;;25.47;100.00
3206;BME280;1615;53.602;11.418;2022-08-19T11:53:56;100812.81;;;25.61;100.00
3206;BME280;1615;53.602;11.418;2022-08-19T11:56:23;100814.50;;;25.76;100.00
3206;BME280;1615;53.602;11.418;2022-08-19T11:58:49;100761.47;;;25.60;100.00
3206;BME280;1615;53.602;11.418;2022-08-19T12:01:17;100803.34;;;25.93;100.00
3206;BME280;1615;53.602;11.418;2022-08-19T12:03:47;100809.06;;;26.18;100.00
3206;BME280;1615;53.602;11.418;2022-08-19T12:06:18;100813.91;;;26.24;100.00
3206;BME280;1615;53.602;11.418;2022-08-19T12:08:44;100814.72;;;26.39;100.00
3206;BME280;1615;53.602;11.418;2022-08-19T12:11:12;100807.97;;;26.61;100.00
3206;BME280;1615;53.602;11.418;2022-08-19T12:13:37;100799.16;;;26.73;100.00
3206;BME280;1615;53.602;11.418;2022-08-19T12:16:10;100754.94;;;26.73;100.00
3206;BME280;1615;53.602;11.418;2022-08-19T12:18:37;100779.84;;;27.20;100.00
3206;BME280;1615;53.602;11.418;2022-08-19T12:21:02;100757.72;;;27.12;100.00
3206;BME280;1615;53.602;11.418;2022-08-19T12:23:28;100789.88;;;27.25;100.00
3206;BME280;1615;53.602;11.418;2022-08-19T12:25:53;100777.03;;;27.10;100.00
3206;BME280;1615;53.602;11.418;2022-08-19T12:28:21;100777.44;;;27.26;100.00
3206;BME280;1615;53.602;11.418;2022-08-19T12:30:47;100727.97;;;27.04;100.00
3206;BME280;1615;53.602;11.418;2022-08-19T12:33:14;100783.38;;;27.52;100.00
3206;BME280;1615;53.602;11.418;2022-08-19T12:35:41;100795.47;;;27.46;100.00
3206;BME280;1615;53.602;11.418;2022-08-19T12:38:07;100791.47;;;27.40;100.00
3206;BME280;1615;53.602;11.418;2022-08-19T12:40:32;100777.00;;;27.27;100.00
3206;BME280;1615;53.602;11.418;2022-08-19T12:42:57;100797.91;;;27.30;100.00
3206;BME280;1615;53.602;11.418;2022-08-19T12:45:22;100689.44;;;26.73;100.00
3206;BME280;1615;53.602;11.418;2022-08-19T12:47:48;100756.09;;;27.11;100.00
3206;BME280;1615;53.602;11.418;2022-08-19T12:50:14;100773.78;;;27.32;100.00
3206;BME280;1615;53.602;11.418;2022-08-19T12:52:39;100781.41;;;27.39;100.00
3206;BME280;1615;53.602;11.418;2022-08-19T12:55:08;100786.59;;;27.54;100.00
3206;BME280;1615;53.602;11.418;2022-08-19T12:57:34;100779.69;;;27.76;100.00
3206;BME280;1615;53.602;11.418;2022-08-19T13:00:21;100775.63;;;27.88;100.00
3206;BME280;1615;53.602;11.418;2022-08-19T13:02:49;100778.44;;;27.95;100.00
3206;BME280;1615;53.602;11.418;2022-08-19T13:05:25;100779.97;;;28.06;100.00